• Join FlightAware (Why Join?)
  • Login
  • US Flag 
02:34AM EST


 

Airport Tracker/Info


-or-


 

Live Flight TrackerFlight Track Log ✈ UAL165 ✈ 21-Apr-2013 ✈ PGUM - RJFF / FUK

Flight Track Log - Related Links

Times and Time Zones

All times are in EDT time to prevent confusion due to time zone crossing. See the UAL165 flight status page for this flight to view local times or setup timezone preferences in your user account.

Time Position Orientation Groundspeed Altitude Reporting Facility
EDT Latitude Longitude Course Direction KTS MPH feet Rate Location/Type
05:40PM 13.4833 144.8000 320° Northwest 140 161 1,300  Level Guam Center
05:41PM 13.5333 144.8000 360° North 220 253 3,800 2,700 Climbing Guam Center
05:42PM 13.7595 144.6297 320° Northwest  Level Estimated
05:42PM 13.5833 144.7500 316° Northwest 260 299 6,800  Level Guam Center
05:43PM 13.8513 144.5738 316° Northwest  Level Estimated
05:43PM 13.6500 144.7000 324° Northwest 290 334 10,000  Level Guam Center
05:44PM 13.8809 144.4682 286° West  Level FlightAware Approximate
05:44PM 13.7167 144.6333 316° Northwest 330 380 12,200  Level Guam Center
05:45PM 13.9729 144.4124 320° Northwest  Level Estimated
05:45PM 13.7833 144.5667 316° Northwest 360 414 14,800  Level Guam Center
05:46PM 13.8667 144.5000 322° Northwest 370 426 17,700 2,700 Climbing Guam Center
05:47PM 13.9500 144.4167 316° Northwest 380 437 20,200 2,580 Climbing Guam Center
05:48PM 14.0167 144.3500 316° Northwest 380 437 22,900 2,400 Climbing Guam Center
05:49PM 14.1000 144.2667 316° Northwest 380 437 25,100 2,040 Climbing Guam Center
05:50PM 14.1833 144.2000 322° Northwest 400 460 27,000 1,800 Climbing Guam Center
05:51PM 14.2667 144.1167 316° Northwest 410 472 28,700 1,440 Climbing Guam Center
05:52PM 14.3500 144.0333 316° Northwest 430 495 30,000 1,320 Climbing Guam Center
05:53PM 14.4500 143.9500 321° Northwest 440 506 31,400 1,800 Climbing Guam Center
05:54PM 14.5333 143.8667 316° Northwest 440 506 33,600 2,160 Climbing Guam Center
05:55PM 14.6167 143.7833 316° Northwest 410 472 35,800 1,680 Climbing Guam Center
05:56PM 14.7000 143.7000 316° Northwest 410 472 37,000 1,140 Climbing Guam Center
05:57PM 14.7833 143.6167 316° Northwest 410 472 38,100 960 Climbing Guam Center
05:58PM 14.8667 143.5500 322° Northwest 410 472 39,000 900 Climbing Guam Center
05:59PM 14.9500 143.4667 316° Northwest 410 472 40,000 480 Climbing Guam Center
06:00PM 15.0500 143.3833 321° Northwest 410 472 40,000  Level Guam Center
06:01PM 15.1167 143.3167 316° Northwest 420 483 40,000  Level Guam Center
06:02PM 15.2167 143.2167 316° Northwest 410 472 40,000  Level Guam Center
06:03PM 15.3000 143.1333 316° Northwest 420 483 40,000  Level Guam Center
06:04PM 15.3833 143.0667 322° Northwest 420 483 40,000  Level Guam Center
06:05PM 15.4667 142.9833 316° Northwest 410 472 40,000  Level Guam Center
06:06PM 15.5500 142.9000 316° Northwest 420 483 40,000  Level Guam Center
06:07PM 15.6167 142.8333 316° Northwest 410 472 40,000  Level Guam Center
06:09PM 15.7355 142.7237 318° Northwest  Level FlightAware Approximate
06:16PM 16.2956 142.2048 318° Northwest  Level FlightAware Approximate
06:17PM 16.3755 142.1304 318° Northwest  Level FlightAware Approximate
06:18PM 16.4554 142.0560 318° Northwest  Level FlightAware Approximate
06:19PM 16.5352 141.9814 316° Northwest  Level FlightAware Approximate
06:20PM 16.6126 141.9041 316° Northwest  Level FlightAware Approximate
06:20PM 16.5833 141.9500 319° Northwest 415 478 40,000  Level Oakland Oceanic (ODAPS)
06:21PM 16.6927 141.8299 319° Northwest  Level FlightAware Approximate
06:22PM 16.7739 141.7568 319° Northwest  Level FlightAware Approximate
06:23PM 16.8550 141.6836 319° Northwest  Level FlightAware Approximate
06:24PM 16.9360 141.6104 319° Northwest  Level FlightAware Approximate
06:25PM 17.0171 141.5372 319° Northwest  Level FlightAware Approximate
06:26PM 17.1947 141.3951 319° Northwest 415 478 40,000  Level FlightAware Transoceanic
06:27PM 17.2819 141.3155 319° Northwest 415 478 40,000  Level FlightAware Transoceanic
06:28PM 17.3691 141.2359 319° Northwest 415 478 40,000  Level FlightAware Transoceanic
06:29PM 17.4563 141.1562 319° Northwest 415 478 40,000  Level FlightAware Transoceanic
06:30PM 17.5434 141.0764 319° Northwest 415 478 40,000  Level FlightAware Transoceanic
06:31PM 17.6305 140.9965 319° Northwest 415 478 40,000  Level FlightAware Transoceanic
06:32PM 17.7176 140.9165 319° Northwest 415 478 40,000  Level FlightAware Transoceanic
06:33PM 17.8046 140.8365 319° Northwest 415 478 40,000  Level FlightAware Transoceanic
06:34PM 17.8916 140.7564 319° Northwest 415 478 40,000  Level FlightAware Transoceanic
06:35PM 17.9786 140.6762 319° Northwest 415 478 40,000  Level FlightAware Transoceanic
06:36PM 18.0655 140.5960 319° Northwest 415 478 40,000  Level FlightAware Transoceanic
06:37PM 18.1524 140.5156 319° Northwest 415 478 40,000  Level FlightAware Transoceanic
06:38PM 18.2393 140.4352 319° Northwest 415 478 40,000  Level FlightAware Transoceanic
06:39PM 18.3261 140.3547 319° Northwest 415 478 40,000  Level FlightAware Transoceanic
06:40PM 18.4129 140.2741 319° Northwest 415 478 40,000  Level FlightAware Transoceanic
06:41PM 18.4996 140.1934 319° Northwest 415 478 40,000  Level FlightAware Transoceanic
06:42PM 18.5864 140.1127 319° Northwest 415 478 40,000  Level FlightAware Transoceanic
06:43PM 18.6731 140.0319 319° Northwest 415 478 40,000  Level FlightAware Transoceanic
06:44PM 18.7597 139.9509 319° Northwest 415 478 40,000  Level FlightAware Transoceanic
06:45PM 18.8463 139.8699 318° Northwest 415 478 40,000  Level FlightAware Transoceanic
06:46PM 18.9329 139.7889 318° Northwest 415 478 40,000  Level FlightAware Transoceanic
06:47PM 19.0195 139.7077 318° Northwest 415 478 40,000  Level FlightAware Transoceanic
06:48PM 19.1060 139.6265 318° Northwest 415 478 40,000  Level FlightAware Transoceanic
06:49PM 19.1925 139.5451 318° Northwest 415 478 40,000  Level FlightAware Transoceanic
06:50PM 19.2789 139.4637 318° Northwest 415 478 40,000  Level FlightAware Transoceanic
06:51PM 19.3653 139.3822 318° Northwest 415 478 40,000  Level FlightAware Transoceanic
06:52PM 19.4517 139.3006 318° Northwest 415 478 40,000  Level FlightAware Transoceanic
06:53PM 19.5381 139.2189 318° Northwest 415 478 40,000  Level FlightAware Transoceanic
06:54PM 19.6244 139.1372 318° Northwest 415 478 40,000  Level FlightAware Transoceanic
06:55PM 19.7106 139.0553 318° Northwest 415 478 40,000  Level FlightAware Transoceanic
06:56PM 19.7969 138.9734 318° Northwest 415 478 40,000  Level FlightAware Transoceanic
06:57PM 19.8830 138.8914 318° Northwest 415 478 40,000  Level FlightAware Transoceanic
06:58PM 19.9692 138.8092 318° Northwest 415 478 40,000  Level FlightAware Transoceanic
06:59PM 20.0553 138.7270 318° Northwest 415 478 40,000  Level FlightAware Transoceanic
07:00PM 20.1414 138.6447 318° Northwest 415 478 40,000  Level FlightAware Transoceanic
07:01PM 20.2274 138.5623 318° Northwest 415 478 40,000  Level FlightAware Transoceanic
07:02PM 20.3134 138.4799 318° Northwest 415 478 40,000  Level FlightAware Transoceanic
07:03PM 20.3994 138.3973 318° Northwest 415 478 40,000  Level FlightAware Transoceanic
07:04PM 20.4853 138.3146 318° Northwest 415 478 40,000  Level FlightAware Transoceanic
07:05PM 20.5712 138.2319 318° Northwest 415 478 40,000  Level FlightAware Transoceanic
07:06PM 20.6570 138.1490 318° Northwest 415 478 40,000  Level FlightAware Transoceanic
07:07PM 20.7428 138.0661 318° Northwest 415 478 40,000  Level FlightAware Transoceanic
07:08PM 20.8286 137.9830 318° Northwest 415 478 40,000  Level FlightAware Transoceanic
07:09PM 20.9143 137.8999 318° Northwest 415 478 40,000  Level FlightAware Transoceanic
07:10PM 21.0000 137.8167 330° Northwest 415 478 40,000  Level FlightAware Transoceanic
07:11PM 21.0942 137.7595 330° Northwest 415 478 40,000  Level FlightAware Transoceanic
07:12PM 21.1885 137.7023 330° Northwest 415 478 40,000  Level FlightAware Transoceanic
07:13PM 21.2827 137.6450 330° Northwest 415 478 40,000  Level FlightAware Transoceanic
07:14PM 21.3769 137.5876 330° Northwest 415 478 40,000  Level FlightAware Transoceanic
07:15PM 21.4710 137.5301 330° Northwest 415 478 40,000  Level FlightAware Transoceanic
07:16PM 21.5652 137.4726 330° Northwest 415 478 40,000  Level FlightAware Transoceanic
07:17PM 21.6593 137.4150 330° Northwest 415 478 40,000  Level FlightAware Transoceanic
07:18PM 21.7534 137.3573 330° Northwest 415 478 40,000  Level FlightAware Transoceanic
07:19PM 21.8475 137.2996 330° Northwest 415 478 40,000  Level FlightAware Transoceanic
07:20PM 21.9416 137.2418 330° Northwest 415 478 40,000  Level FlightAware Transoceanic
07:21PM 22.0356 137.1839 330° Northwest 415 478 40,000  Level FlightAware Transoceanic
07:22PM 22.1297 137.1259 330° Northwest 415 478 40,000  Level FlightAware Transoceanic
07:23PM 22.2237 137.0678 330° Northwest 415 478 40,000  Level FlightAware Transoceanic
07:24PM 22.3176 137.0097 330° Northwest 415 478 40,000  Level FlightAware Transoceanic
07:25PM 22.4116 136.9515 330° Northwest 415 478 40,000  Level FlightAware Transoceanic
07:26PM 22.5056 136.8932 330° Northwest 415 478 40,000  Level FlightAware Transoceanic
07:27PM 22.5995 136.8348 330° Northwest 415 478 40,000  Level FlightAware Transoceanic
07:28PM 22.6934 136.7763 330° Northwest 415 478 40,000  Level FlightAware Transoceanic
07:29PM 22.7873 136.7178 330° Northwest 415 478 40,000  Level FlightAware Transoceanic
07:30PM 22.8811 136.6592 330° Northwest 415 478 40,000  Level FlightAware Transoceanic
07:31PM 22.9750 136.6005 330° Northwest 415 478 40,000  Level FlightAware Transoceanic
07:32PM 23.0688 136.5417 330° Northwest 415 478 40,000  Level FlightAware Transoceanic
07:33PM 23.1626 136.4829 330° Northwest 415 478 40,000  Level FlightAware Transoceanic
07:34PM 23.2563 136.4239 330° Northwest 415 478 40,000  Level FlightAware Transoceanic
07:35PM 23.3501 136.3649 330° Northwest 415 478 40,000  Level FlightAware Transoceanic
07:36PM 23.4438 136.3058 330° Northwest 415 478 40,000  Level FlightAware Transoceanic
07:37PM 23.5375 136.2466 330° Northwest 415 478 40,000  Level FlightAware Transoceanic
07:38PM 23.6312 136.1873 330° Northwest 415 478 40,000  Level FlightAware Transoceanic
07:39PM 23.7249 136.1280 330° Northwest 415 478 40,000  Level FlightAware Transoceanic
07:40PM 23.8185 136.0685 330° Northwest 415 478 40,000  Level FlightAware Transoceanic
07:41PM 23.9121 136.0090 330° Northwest 415 478 40,000  Level FlightAware Transoceanic
07:42PM 24.0057 135.9494 330° Northwest 415 478 40,000  Level FlightAware Transoceanic
07:43PM 24.0993 135.8897 330° Northwest 415 478 40,000  Level FlightAware Transoceanic
07:44PM 24.1929 135.8299 330° Northwest 415 478 40,000  Level FlightAware Transoceanic
07:45PM 24.2864 135.7700 330° Northwest 415 478 40,000  Level FlightAware Transoceanic
07:46PM 24.3799 135.7100 330° Northwest 415 478 40,000  Level FlightAware Transoceanic
07:47PM 24.4734 135.6500 330° Northwest 415 478 40,000  Level FlightAware Transoceanic
07:48PM 24.5668 135.5898 330° Northwest 415 478 40,000  Level FlightAware Transoceanic
07:49PM 24.6602 135.5296 330° Northwest 415 478 40,000  Level FlightAware Transoceanic
07:50PM 24.7536 135.4693 330° Northwest 415 478 40,000  Level FlightAware Transoceanic
07:51PM 24.8470 135.4088 330° Northwest 415 478 40,000  Level FlightAware Transoceanic
07:52PM 24.9404 135.3483 330° Northwest 415 478 40,000  Level FlightAware Transoceanic
07:53PM 25.0337 135.2877 330° Northwest 415 478 40,000  Level FlightAware Transoceanic
07:54PM 25.1270 135.2270 329° Northwest 415 478 40,000  Level FlightAware Transoceanic
07:55PM 25.2203 135.1662 329° Northwest 415 478 40,000  Level FlightAware Transoceanic
07:56PM 25.3136 135.1054 329° Northwest 415 478 40,000  Level FlightAware Transoceanic
07:57PM 25.4068 135.0444 329° Northwest 415 478 40,000 -120 Level FlightAware Transoceanic
07:58PM 25.4923 134.9762 324° Northwest  Level FlightAware Approximate
07:59PM 25.4906 134.9785 329° Northwest  Level FlightAware Approximate
08:00PM 25.5813 134.9191 329° Northwest  Level FlightAware Approximate
08:01PM 25.6720 134.8596 329° Northwest  Level FlightAware Approximate
08:02PM 25.7627 134.8000 329° Northwest  Level FlightAware Approximate
08:03PM 25.8533 134.7404 329° Northwest  Level FlightAware Approximate
08:04PM 25.9439 134.6806 329° Northwest  Level FlightAware Approximate
08:05PM 26.0345 134.6207 329° Northwest  Level FlightAware Approximate
08:06PM 26.1251 134.5608 329° Northwest  Level FlightAware Approximate
08:07PM 26.2156 134.5007 329° Northwest  Level FlightAware Approximate
08:08PM 26.3057 134.4397 329° Northwest  Level FlightAware Approximate
08:09PM 26.3957 134.3787 329° Northwest  Level FlightAware Approximate
08:10PM 26.4857 134.3175 329° Northwest  Level FlightAware Approximate
08:11PM 26.5757 134.2562 329° Northwest  Level FlightAware Approximate
08:12PM 26.6656 134.1948 329° Northwest  Level FlightAware Approximate
08:13PM 26.7555 134.1334 329° Northwest  Level FlightAware Approximate
08:14PM 26.8454 134.0718 329° Northwest  Level FlightAware Approximate
08:15PM 26.9353 134.0101 329° Northwest  Level FlightAware Approximate
08:16PM 27.0251 133.9484 329° Northwest  Level FlightAware Approximate
08:17PM 27.1150 133.8865 328° Northwest  Level FlightAware Approximate
08:18PM 27.2048 133.8246 328° Northwest  Level FlightAware Approximate
08:19PM 27.2945 133.7625 328° Northwest  Level FlightAware Approximate
08:20PM 27.3842 133.7003 328° Northwest  Level FlightAware Approximate
08:21PM 27.4739 133.6381 328° Northwest  Level FlightAware Approximate
08:22PM 27.5636 133.5757 328° Northwest  Level FlightAware Approximate
08:23PM 27.6533 133.5133 328° Northwest  Level FlightAware Approximate
08:24PM 27.7429 133.4507 328° Northwest  Level FlightAware Approximate
08:25PM 27.8325 133.3880 328° Northwest  Level FlightAware Approximate
08:26PM 27.9221 133.3253 328° Northwest  Level FlightAware Approximate
08:27PM 28.0116 133.2624 328° Northwest  Level FlightAware Approximate
08:28PM 28.1011 133.1994 328° Northwest  Level FlightAware Approximate
08:29PM 28.1906 133.1363 328° Northwest  Level FlightAware Approximate
08:30PM 28.2800 133.0731 328° Northwest  Level FlightAware Approximate
08:31PM 28.3695 133.0098 328° Northwest  Level FlightAware Approximate
08:32PM 28.4589 132.9466 328° Northwest  Level FlightAware Approximate
08:33PM 28.5484 132.8832 328° Northwest  Level FlightAware Approximate
08:34PM 28.6378 132.8198 328° Northwest  Level FlightAware Approximate
08:35PM 28.7272 132.7562 328° Northwest  Level FlightAware Approximate
08:36PM 28.8166 132.6926 328° Northwest  Level FlightAware Approximate
08:37PM 28.9059 132.6288 328° Northwest  Level FlightAware Approximate
08:38PM 28.9952 132.5649 328° Northwest  Level FlightAware Approximate
08:39PM 29.0845 132.5009 328° Northwest  Level FlightAware Approximate
08:40PM 29.1737 132.4368 328° Northwest  Level FlightAware Approximate
08:41PM 29.2630 132.3726 328° Northwest  Level FlightAware Approximate
08:42PM 29.3522 132.3083 328° Northwest  Level FlightAware Approximate
08:43PM 29.4413 132.2438 328° Northwest  Level FlightAware Approximate
08:44PM 29.5304 132.1793 328° Northwest  Level FlightAware Approximate
08:45PM 29.6195 132.1146 327° Northwest  Level FlightAware Approximate
08:46PM 29.7082 132.0491 327° Northwest  Level FlightAware Approximate
08:47PM 29.7968 131.9835 327° Northwest  Level FlightAware Approximate
08:48PM 29.8854 131.9178 327° Northwest  Level FlightAware Approximate
08:49PM 29.9740 131.8520 327° Northwest  Level FlightAware Approximate
08:50PM 30.0625 131.7860 327° Northwest  Level FlightAware Approximate
08:51PM 30.1510 131.7199 327° Northwest  Level FlightAware Approximate
08:52PM 30.2397 131.6540 327° Northwest  Level FlightAware Approximate
08:53PM 30.3284 131.5883 327° Northwest  Level FlightAware Approximate
08:54PM 30.4172 131.5224 327° Northwest  Level FlightAware Approximate
08:55PM 30.5059 131.4565 327° Northwest  Level FlightAware Approximate
08:56PM 30.5945 131.3904 327° Northwest  Level FlightAware Approximate
08:57PM 30.6832 131.3242 327° Northwest  Level FlightAware Approximate
08:58PM 30.7718 131.2578 327° Northwest  Level FlightAware Approximate
08:59PM 30.8603 131.1914 327° Northwest  Level FlightAware Approximate
09:00PM 30.9489 131.1248 327° Northwest  Level FlightAware Approximate
09:01PM 31.0374 131.0581 327° Northwest  Level FlightAware Approximate
09:02PM 31.1251 130.9918 327° Northwest  Level FlightAware Approximate
09:02PM 30.8490 130.9000 327° Northwest 398 458 36,000  Level FlightAware
09:03PM 31.2128 130.9254 327° Northwest  Level FlightAware Approximate
09:03PM 30.9400 130.8660 342° North 396 456 36,000  Level FlightAware
09:03PM 31.0090 130.8400 342° North 397 457 36,000  Level FlightAware
09:04PM 31.0890 130.8100 342° North 398 458 36,000  Level FlightAware
09:05PM 31.1570 130.7860 343° North 402 463 36,000  Level FlightAware
09:06PM 31.2400 130.7550 342° North 405 466 36,000  Level FlightAware
09:06PM 31.3100 130.7290 342° North 402 463 36,000  Level FlightAware
09:07PM 31.3920 130.6980 342° North 401 461 36,000  Level FlightAware
09:08PM 31.4620 130.6720 342° North 399 459 36,000  Level FlightAware
09:08PM 31.5410 130.6420 342° North 396 456 36,000  Level FlightAware
09:09PM 31.6100 130.6160 342° North 394 453 36,000  Level FlightAware
09:10PM 31.6900 130.5860 342° North 396 456 36,000  Level FlightAware
09:11PM 31.7580 130.5600 342° North 398 458 36,000  Level FlightAware
09:11PM 31.8380 130.5290 342° North 397 457 36,000  Level FlightAware
09:12PM 31.9080 130.5010 341° North 397 457 36,000  Level FlightAware
09:13PM 32.0180 130.4580 342° North 394 453 36,000  Level FlightAware
09:14PM 32.0900 130.4310 342° North 391 450 36,000  Level FlightAware
09:14PM 32.1630 130.4020 341° North 391 450 36,000  Level FlightAware
09:15PM 32.2420 130.3710 342° North 391 450 36,000  Level FlightAware
09:16PM 32.3100 130.3450 342° North 392 451 36,000  Level FlightAware
09:17PM 32.3880 130.3140 341° North 393 452 36,000  Level FlightAware
09:17PM 32.4670 130.2830 342° North 392 451 36,000 -480 Level FlightAware
09:18PM 32.5330 130.2570 342° North 390 449 35,400 -1,020 Descending FlightAware
09:19PM 32.6040 130.2290 342° North 392 451 34,700 -1,020 Descending FlightAware
09:19PM 32.6810 130.1990 342° North 397 457 34,000 -1,020 Descending FlightAware
09:20PM 32.7550 130.1710 342° North 400 460 33,300 -1,500 Descending FlightAware
09:21PM 32.8780 130.1220 342° North 387 445 31,300 -2,100 Descending FlightAware
09:22PM 32.9450 130.0960 342° North 377 434 29,500 -3,060 Descending FlightAware
09:23PM 33.0180 130.0670 342° North 385 443 27,000 -3,480 Descending FlightAware
09:23PM 33.0800 130.0420 341° North 390 449 24,900 -3,000 Descending FlightAware
09:24PM 33.1650 130.0090 342° North 375 432 22,800 -2,580 Descending FlightAware
09:25PM 33.2300 129.9830 342° North 366 421 21,100 -2,880 Descending FlightAware
09:25PM 33.2960 129.9630 346° North 381 438 19,000 -3,120 Descending FlightAware
09:26PM 33.3480 129.9670 North 386 444 17,500 -2,880 Descending FlightAware
09:27PM 33.4290 129.9720 North 371 427 15,400 -2,640 Descending FlightAware
09:27PM 33.4960 129.9750 North 356 410 13,800 -2,400 Descending FlightAware
09:28PM 33.5590 129.9780 North 341 392 12,200 -1,740 Descending FlightAware
09:29PM 33.6280 129.9810 North 301 346 11,400 -900 Descending FlightAware
09:29PM 33.6800 129.9830 North 269 310 11,000 -600 Descending FlightAware
09:30PM 33.7250 129.9850 North 244 281 10,600 -720 Descending FlightAware
09:31PM 33.7750 129.9890 North 229 264 10,000 -780 Descending FlightAware
09:31PM 33.8000 129.9910 North 220 253 9,700 -780 Descending FlightAware
09:32PM 33.8290 129.9990 13° North 233 268 9,300 -1,080 Descending FlightAware
09:32PM 33.8390 130.0180 58° Northeast 256 295 8,900 -1,200 Descending FlightAware
09:33PM 33.8440 130.0610 82° East 254 292 8,400 -1,020 Descending FlightAware
09:33PM 33.8490 130.0950 80° East 252 290 8,000 -1,140 Descending FlightAware
09:33PM 33.8540 130.1380 82° East 253 291 7,400 -1,140 Descending FlightAware
09:34PM 33.8460 130.1710 106° East 263 303 7,000 -900 Descending FlightAware
09:34PM 33.8330 130.1830 143° Southeast 260 299 6,800 -960 Descending FlightAware
09:35PM 33.8040 130.2080 144° Southeast 255 293 6,300 -840 Descending FlightAware
09:36PM 33.7330 130.2690 144° Southeast 215 247 5,300 -780 Descending FlightAware
09:37PM 33.6670 130.3200 147° Southeast 191 220 4,300 -780 Descending FlightAware
09:38PM 33.6510 130.3330 146° Southeast 193 222 3,900 -840 Descending FlightAware
09:38PM 33.6320 130.3470 148° Southeast 193 222 3,500 -1,080 Descending FlightAware
09:39PM 33.6090 130.3640 148° Southeast 190 219 3,000 -960 Descending FlightAware
09:39PM 33.5920 130.3770 148° Southeast 186 214 2,700 -660 Descending FlightAware
09:40PM 33.5740 130.3960 139° Southeast 177 204 2,400 -720 Descending FlightAware
09:40PM 33.5350 130.4340 141° Southeast 156 180 1,800 -660 Descending FlightAware
09:41PM 33.5210 130.4480 140° Southeast 151 174 1,600 -600 Descending FlightAware
09:41PM 33.5170 130.4580 116° Southeast 140 161 1,400 -720 Descending FlightAware
09:42PM 33.5240 130.4760 65° Northeast 121 139 1,100 -720 Descending FlightAware
09:42PM 33.5310 130.4830 40° Northeast 118 136 900 -600 Descending FlightAware
09:42PM 33.5340 130.4840 16° North 115 132 900 -600 Level FlightAware
09:42PM 33.5460 130.4780 337° Northwest 112 129 600 -720 Descending FlightAware
09:43PM 33.5590 130.4690 330° Northwest 114 131 300 -600 Descending FlightAware
09:43PM 33.5690 130.4620 330° Northwest 117 135 100 -240 Descending FlightAware
09:44PM 33.5800 130.4540 329° Northwest 117 135 100  Level FlightAware
09:45PM 33.5890 130.4470 327° Northwest -120 Descending FlightAware
09:45PM 33.5900 130.4460 320° Northwest  Level FlightAware
09:45PM 33.5890 130.4450 220° Southwest  Level FlightAware